createdAt,value
2018-04-28T00:00:04.842Z,100507.73
2018-04-28T00:02:32.340Z,100507.03
2018-04-28T00:04:59.858Z,100504.13
2018-04-28T00:07:27.402Z,100501.55
2018-04-28T00:09:55.231Z,100501.64
2018-04-28T00:12:22.838Z,100500.91
2018-04-28T00:14:50.379Z,100494.60
2018-04-28T00:17:18.574Z,100489.03
2018-04-28T00:19:47.772Z,100489.13
2018-04-28T00:25:13.379Z,100490.78
2018-04-28T00:27:42.754Z,100490.66
2018-04-28T00:30:11.885Z,100489.60
2018-04-28T00:32:39.401Z,100479.81
2018-04-28T00:35:07.744Z,100486.00
2018-04-28T00:37:50.136Z,100481.06
2018-04-28T00:40:19.233Z,100480.64
2018-04-28T00:43:04.204Z,100479.81
2018-04-28T00:45:37.561Z,100477.61
2018-04-28T00:51:26.421Z,100474.11
2018-04-28T00:53:53.944Z,100472.96
2018-04-28T00:56:22.352Z,100478.69
2018-04-28T00:58:51.487Z,100473.84
2018-04-28T01:04:27.368Z,100469.52
2018-04-28T01:06:54.900Z,100471.81
2018-04-28T01:09:23.266Z,100471.68
2018-04-28T01:11:50.805Z,100468.05
2018-04-28T01:14:30.114Z,100467.86
2018-04-28T01:16:57.680Z,100474.60
2018-04-28T01:19:25.993Z,100480.05
2018-04-28T01:21:53.528Z,100480.45
2018-04-28T01:27:39.569Z,100477.23
2018-04-28T01:33:41.967Z,100471.66
2018-04-28T01:36:31.024Z,100468.02
2018-04-28T01:39:01.554Z,100463.41
2018-04-28T01:44:48.689Z,100469.58
2018-04-28T01:47:21.045Z,100471.38
2018-04-28T01:49:49.487Z,100466.83
2018-04-28T01:52:17.661Z,100466.92
2018-04-28T01:58:00.915Z,100468.72
2018-04-28T02:03:49.306Z,100472.72
2018-04-28T02:06:19.698Z,100474.25
2018-04-28T02:08:49.916Z,100474.75
2018-04-28T02:11:21.827Z,100469.39
2018-04-28T02:14:01.134Z,100472.58
2018-04-28T02:16:34.463Z,100464.89
2018-04-28T02:19:05.878Z,100465.02
2018-04-28T02:21:40.116Z,100468.10
2018-04-28T02:24:15.295Z,100461.42
2018-04-28T02:26:44.788Z,100472.99
2018-04-28T02:29:22.459Z,100472.39
2018-04-28T02:32:02.621Z,100470.09
2018-04-28T02:34:30.388Z,100462.25
2018-04-28T02:37:30.264Z,100458.89
2018-04-28T02:40:03.549Z,100457.73
2018-04-28T02:42:37.780Z,100459.70
2018-04-28T02:45:16.149Z,100464.31
2018-04-28T02:47:45.946Z,100470.17
2018-04-28T02:50:18.233Z,100470.81
2018-04-28T02:56:08.606Z,100480.90
2018-04-28T02:58:46.885Z,100477.17
2018-04-28T03:04:21.993Z,100467.49
2018-04-28T03:06:53.248Z,100470.98
2018-04-28T03:09:22.343Z,100467.94
2018-04-28T03:12:04.779Z,100469.88
2018-04-28T03:14:33.120Z,100470.23
2018-04-28T03:17:05.075Z,100476.58
2018-04-28T03:19:54.227Z,100484.92
2018-04-28T03:22:23.406Z,100482.25
2018-04-28T03:24:55.364Z,100482.16
2018-04-28T03:27:23.827Z,100482.14
2018-04-28T03:29:52.142Z,100483.66
2018-04-28T03:32:19.754Z,100477.91
2018-04-28T03:34:47.288Z,100480.57
2018-04-28T03:37:26.005Z,100488.36
2018-04-28T03:39:56.323Z,100492.44
2018-04-28T03:42:27.491Z,100492.38
2018-04-28T03:45:03.666Z,100495.70
2018-04-28T03:47:34.638Z,100499.89
2018-04-28T03:50:02.138Z,100501.91
2018-04-28T03:52:50.430Z,100498.83
2018-04-28T03:55:27.855Z,100497.31
2018-04-28T03:58:07.455Z,100500.42
2018-04-28T04:00:47.094Z,100500.33
2018-04-28T04:03:20.608Z,100503.69
2018-04-28T04:09:01.182Z,100508.52
2018-04-28T04:14:59.338Z,100502.72
2018-04-28T04:20:49.578Z,100499.77
2018-04-28T04:26:36.949Z,100509.77
2018-04-28T04:29:18.891Z,100508.25
2018-04-28T04:32:02.726Z,100503.23
2018-04-28T04:37:30.256Z,100509.60
2018-04-28T04:40:09.553Z,100519.45
2018-04-28T04:42:43.826Z,100527.27
2018-04-28T04:45:25.414Z,100527.39
2018-04-28T04:51:24.941Z,100526.44
2018-04-28T04:54:02.212Z,100533.11
2018-04-28T04:56:41.550Z,100532.54
2018-04-28T04:59:18.248Z,100534.55
2018-04-28T05:02:17.178Z,100528.93
2018-04-28T05:04:50.606Z,100532.83
2018-04-28T05:10:20.040Z,100543.79
2018-04-28T05:16:07.922Z,100546.92
2018-04-28T05:18:39.172Z,100551.99
2018-04-28T05:27:50.373Z,100566.92
2018-04-28T05:33:30.843Z,100570.31
2018-04-28T05:36:04.261Z,100583.88
2018-04-28T05:38:37.777Z,100582.94
2018-04-28T05:41:17.130Z,100584.15
2018-04-28T05:46:46.526Z,100589.14
2018-04-28T05:49:15.005Z,100590.91
2018-04-28T05:52:01.122Z,100587.30
2018-04-28T05:54:33.501Z,100596.06
2018-04-28T06:00:11.771Z,100588.46
2018-04-28T06:02:43.190Z,100594.19
2018-04-28T06:05:23.027Z,100593.55
2018-04-28T06:07:56.374Z,100600.02
2018-04-28T06:10:24.871Z,100602.14
2018-04-28T06:13:04.285Z,100609.48
2018-04-28T06:15:38.337Z,100618.00
2018-04-28T06:18:12.785Z,100618.30
2018-04-28T06:20:41.229Z,100616.13
2018-04-28T06:23:08.758Z,100622.31
2018-04-28T06:25:36.592Z,100622.19
2018-04-28T06:28:04.140Z,100624.48
2018-04-28T06:30:31.670Z,100626.83
2018-04-28T06:32:59.190Z,100636.48
2018-04-28T06:35:26.709Z,100640.09
2018-04-28T06:37:54.219Z,100640.13
2018-04-28T06:40:22.059Z,100646.26
2018-04-28T06:42:49.601Z,100646.03
2018-04-28T06:45:17.101Z,100649.92
2018-04-28T06:47:44.961Z,100653.94
2018-04-28T06:50:12.501Z,100653.97
2018-04-28T06:52:40.012Z,100653.55
2018-04-28T06:55:07.535Z,100654.88
2018-04-28T06:57:35.069Z,100656.12
2018-04-28T07:00:02.850Z,100655.91
2018-04-28T07:02:30.356Z,100659.99
2018-04-28T07:04:57.885Z,100657.29
2018-04-28T07:07:25.547Z,100655.24
2018-04-28T07:09:53.178Z,100659.33
2018-04-28T07:12:20.737Z,100658.97
2018-04-28T07:14:48.259Z,100654.77
2018-04-28T07:17:16.090Z,100661.23
2018-04-28T07:19:43.654Z,100655.94
2018-04-28T07:22:11.239Z,100647.30
2018-04-28T07:24:38.766Z,100651.97
2018-04-28T07:27:06.316Z,100651.10
2018-04-28T07:29:33.835Z,100653.66
2018-04-28T07:32:01.387Z,100643.86
2018-04-28T07:34:28.974Z,100650.83
2018-04-28T07:36:56.509Z,100644.65
2018-04-28T07:39:24.304Z,100645.06
2018-04-28T07:41:51.851Z,100650.80
2018-04-28T07:44:19.374Z,100654.75
2018-04-28T07:46:46.923Z,100652.55
2018-04-28T07:49:14.674Z,100652.13
2018-04-28T07:51:42.345Z,100651.88
2018-04-28T07:54:09.907Z,100652.52
2018-04-28T07:56:37.460Z,100656.97
2018-04-28T07:59:04.983Z,100649.83
2018-04-28T08:01:32.512Z,100653.17
2018-04-28T08:04:00.125Z,100658.85
2018-04-28T08:06:27.921Z,100657.17
2018-04-28T08:08:56.310Z,100660.34
2018-04-28T08:11:24.112Z,100658.98
2018-04-28T08:13:51.705Z,100663.29
2018-04-28T08:16:19.379Z,100662.09
2018-04-28T08:18:46.935Z,100659.75
2018-04-28T08:21:14.710Z,100661.84
2018-04-28T08:23:42.287Z,100662.66
2018-04-28T08:26:09.926Z,100660.97
2018-04-28T08:28:37.531Z,100661.30
2018-04-28T08:31:05.071Z,100663.79
2018-04-28T08:33:32.612Z,100670.66
2018-04-28T08:36:00.113Z,100667.08
2018-04-28T08:38:27.636Z,100672.22
2018-04-28T08:40:55.191Z,100668.58
2018-04-28T08:43:22.727Z,100676.17
2018-04-28T08:45:50.284Z,100671.54
2018-04-28T08:48:17.889Z,100671.59
2018-04-28T08:50:45.457Z,100676.19
2018-04-28T08:53:12.981Z,100672.45
2018-04-28T08:55:40.553Z,100673.66
2018-04-28T08:58:08.090Z,100675.17
2018-04-28T09:00:35.646Z,100670.64
2018-04-28T09:03:03.201Z,100666.72
2018-04-28T09:05:30.707Z,100677.14
2018-04-28T09:07:58.229Z,100674.98
2018-04-28T09:10:25.850Z,100675.33
2018-04-28T09:12:53.383Z,100679.99
2018-04-28T09:15:20.972Z,100674.67
2018-04-28T09:17:48.579Z,100679.72
2018-04-28T09:20:16.128Z,100681.78
2018-04-28T09:22:43.767Z,100673.47
2018-04-28T09:25:11.420Z,100671.44
2018-04-28T09:27:39.021Z,100678.42
2018-04-28T09:30:06.614Z,100677.22
2018-04-28T09:32:34.193Z,100675.02
2018-04-28T09:35:01.750Z,100675.95
2018-04-28T09:37:29.368Z,100672.20
2018-04-28T09:39:57.018Z,100664.26
2018-04-28T09:42:24.595Z,100667.94
2018-04-28T09:44:52.127Z,100677.36
2018-04-28T09:47:19.737Z,100681.53
2018-04-28T09:49:47.281Z,100679.83
2018-04-28T09:52:14.834Z,100679.37
2018-04-28T09:54:42.398Z,100677.09
2018-04-28T09:57:09.958Z,100684.26
2018-04-28T09:59:37.599Z,100682.33
2018-04-28T10:02:10.851Z,100695.83
2018-04-28T10:04:38.675Z,100685.50
2018-04-28T10:07:06.306Z,100689.24
2018-04-28T10:09:34.148Z,100689.50
2018-04-28T10:12:01.793Z,100691.67
2018-04-28T10:14:29.349Z,100690.97
2018-04-28T10:16:56.957Z,100684.30
2018-04-28T10:19:24.947Z,100686.28
2018-04-28T10:21:52.551Z,100680.71
2018-04-28T10:24:20.239Z,100677.34
2018-04-28T10:26:48.486Z,100678.73
2018-04-28T10:29:16.004Z,100675.05
2018-04-28T10:31:43.663Z,100668.56
2018-04-28T10:34:11.936Z,100671.19
2018-04-28T10:36:39.512Z,100672.77
2018-04-28T10:39:07.104Z,100676.70
2018-04-28T10:41:34.760Z,100670.13
2018-04-28T10:44:02.934Z,100674.42
2018-04-28T10:46:30.597Z,100661.91
2018-04-28T10:48:58.100Z,100663.97
2018-04-28T10:51:25.653Z,100658.63
2018-04-28T10:53:53.278Z,100657.83
2018-04-28T10:56:20.811Z,100660.42
2018-04-28T10:58:48.338Z,100658.67
2018-04-28T11:01:15.846Z,100665.57
2018-04-28T11:03:43.649Z,100660.68
2018-04-28T11:06:11.168Z,100657.77
2018-04-28T11:08:38.731Z,100657.04
2018-04-28T11:11:06.241Z,100653.64
2018-04-28T11:13:33.795Z,100656.70
2018-04-28T11:16:01.368Z,100650.66
2018-04-28T11:18:28.887Z,100664.95
2018-04-28T11:20:56.462Z,100662.89
2018-04-28T11:23:24.345Z,100658.41
2018-04-28T11:25:52.120Z,100656.17
2018-04-28T11:28:19.979Z,100656.09
2018-04-28T11:30:47.586Z,100654.36
2018-04-28T11:33:15.117Z,100654.78
2018-04-28T11:35:42.676Z,100647.44
2018-04-28T11:38:10.305Z,100647.25
2018-04-28T11:40:37.749Z,100650.34
2018-04-28T11:43:05.546Z,100654.11
2018-04-28T11:45:33.076Z,100657.66
2018-04-28T11:48:00.595Z,100653.48
2018-04-28T11:50:28.431Z,100648.48
2018-04-28T11:52:55.990Z,100645.84
2018-04-28T11:55:23.560Z,100641.09
2018-04-28T11:57:51.148Z,100646.11
2018-04-28T12:00:18.666Z,100640.90
2018-04-28T12:02:46.542Z,100637.75
2018-04-28T12:05:14.346Z,100640.95
2018-04-28T12:07:41.837Z,100635.37
2018-04-28T12:10:09.354Z,100635.67
2018-04-28T12:12:36.915Z,100624.55
2018-04-28T12:15:04.475Z,100629.05
2018-04-28T12:17:32.033Z,100633.00
2018-04-28T12:19:59.579Z,100625.99
2018-04-28T12:22:27.081Z,100624.58
2018-04-28T12:24:54.594Z,100625.03
2018-04-28T12:27:22.197Z,100615.05
2018-04-28T12:29:49.743Z,100615.45
2018-04-28T12:32:17.300Z,100620.75
2018-04-28T12:34:44.839Z,100621.19
2018-04-28T12:37:12.362Z,100622.16
2018-04-28T12:39:39.888Z,100622.08
2018-04-28T12:42:07.424Z,100629.47
2018-04-28T12:44:34.926Z,100621.09
2018-04-28T12:47:02.456Z,100614.97
2018-04-28T12:49:30.043Z,100618.98
2018-04-28T12:51:57.684Z,100610.78
2018-04-28T12:54:25.554Z,100612.68
2018-04-28T12:56:53.189Z,100601.67
2018-04-28T12:59:20.731Z,100606.84
2018-04-28T13:01:48.250Z,100607.69
2018-04-28T13:04:16.077Z,100606.67
2018-04-28T13:06:43.586Z,100612.90
2018-04-28T13:09:11.101Z,100612.97
2018-04-28T13:11:38.621Z,100603.23
2018-04-28T13:14:06.167Z,100599.41
2018-04-28T13:16:33.692Z,100602.74
2018-04-28T13:19:01.263Z,100602.88
2018-04-28T13:21:28.800Z,100595.80
2018-04-28T13:23:56.321Z,100580.34
2018-04-28T13:26:23.840Z,100576.34
2018-04-28T13:28:51.367Z,100574.28
2018-04-28T13:31:18.884Z,100585.84
2018-04-28T13:33:46.405Z,100574.98
2018-04-28T13:36:14.255Z,100578.14
2018-04-28T13:38:41.770Z,100582.08
2018-04-28T13:41:09.328Z,100584.81
2018-04-28T13:43:36.859Z,100597.30
2018-04-28T13:46:04.361Z,100595.70
2018-04-28T13:48:31.897Z,100586.06
2018-04-28T13:50:59.427Z,100579.20
2018-04-28T13:53:26.973Z,100572.60
2018-04-28T13:55:54.564Z,100583.95
2018-04-28T13:58:22.050Z,100579.61
2018-04-28T14:00:49.869Z,100589.13
2018-04-28T14:03:17.401Z,100582.09
2018-04-28T14:05:45.189Z,100586.00
2018-04-28T14:08:12.959Z,100587.59
2018-04-28T14:10:40.742Z,100584.88
2018-04-28T14:13:08.258Z,100583.23
2018-04-28T14:15:35.756Z,100574.24
2018-04-28T14:18:03.304Z,100579.02
2018-04-28T14:20:30.828Z,100578.76
2018-04-28T14:22:58.343Z,100572.41
2018-04-28T14:25:25.919Z,100578.05
2018-04-28T14:27:53.436Z,100569.50
2018-04-28T14:30:20.948Z,100570.86
2018-04-28T14:32:48.485Z,100571.00
2018-04-28T14:35:15.996Z,100568.02
2018-04-28T14:37:43.521Z,100570.13
2018-04-28T14:40:11.352Z,100571.94
2018-04-28T14:42:41.495Z,100576.48
2018-04-28T14:45:09.010Z,100571.96
2018-04-28T14:47:36.586Z,100570.85
2018-04-28T14:50:04.180Z,100563.70
2018-04-28T14:52:31.696Z,100559.93
2018-04-28T14:54:59.253Z,100568.98
2018-04-28T14:57:26.760Z,100566.64
2018-04-28T14:59:54.283Z,100567.32
2018-04-28T15:02:22.201Z,100571.67
2018-04-28T15:04:50.037Z,100575.50
2018-04-28T15:07:17.549Z,100572.09
2018-04-28T15:09:45.184Z,100582.15
2018-04-28T15:12:12.634Z,100585.41
2018-04-28T15:14:40.165Z,100578.73
2018-04-28T15:17:07.741Z,100565.19
2018-04-28T15:19:35.258Z,100572.98
2018-04-28T15:22:02.775Z,100563.02
2018-04-28T15:24:30.308Z,100576.00
2018-04-28T15:26:57.893Z,100565.74
2018-04-28T15:29:25.636Z,100568.86
2018-04-28T15:31:53.252Z,100560.70
2018-04-28T15:34:20.760Z,100564.80
2018-04-28T15:36:48.285Z,100560.49
2018-04-28T15:39:15.894Z,100560.66
2018-04-28T15:41:43.657Z,100563.91
2018-04-28T15:44:11.169Z,100561.64
2018-04-28T15:46:38.690Z,100556.84
2018-04-28T15:49:06.230Z,100559.39
2018-04-28T15:51:33.749Z,100563.38
2018-04-28T15:54:01.276Z,100562.87
2018-04-28T15:56:28.888Z,100565.55
2018-04-28T15:58:56.406Z,100558.98
2018-04-28T16:01:23.937Z,100559.97
2018-04-28T16:03:51.482Z,100563.26
2018-04-28T16:06:18.988Z,100557.49
2018-04-28T16:08:46.535Z,100562.11
2018-04-28T16:11:14.382Z,100557.87
2018-04-28T16:13:41.915Z,100561.81
2018-04-28T16:16:09.707Z,100563.10
2018-04-28T16:18:37.466Z,100570.20
2018-04-28T16:21:05.238Z,100568.67
2018-04-28T16:23:32.785Z,100576.96
2018-04-28T16:26:00.313Z,100578.04
2018-04-28T16:28:27.827Z,100579.72
2018-04-28T16:30:55.433Z,100587.47
2018-04-28T16:33:23.036Z,100585.09
2018-04-28T16:35:50.491Z,100585.35
2018-04-28T16:38:18.358Z,100580.58
2018-04-28T16:40:45.853Z,100584.78
2018-04-28T16:43:13.352Z,100593.84
2018-04-28T16:45:40.885Z,100588.46
2018-04-28T16:48:08.404Z,100585.71
2018-04-28T16:50:35.924Z,100588.59
2018-04-28T16:53:03.946Z,100589.28
2018-04-28T16:55:31.444Z,100594.16
2018-04-28T16:57:59.067Z,100590.69
2018-04-28T17:00:27.029Z,100594.58
2018-04-28T17:02:54.522Z,100587.62
2018-04-28T17:05:22.057Z,100594.11
2018-04-28T17:07:49.606Z,100590.98
2018-04-28T17:10:17.177Z,100592.31
2018-04-28T17:12:44.678Z,100593.05
2018-04-28T17:15:12.194Z,100589.60
2018-04-28T17:17:51.421Z,100594.45
2018-04-28T17:20:19.417Z,100598.27
2018-04-28T17:22:46.925Z,100596.92
2018-04-28T17:25:14.454Z,100596.00
2018-04-28T17:27:42.275Z,100601.56
2018-04-28T17:30:09.773Z,100599.24
2018-04-28T17:32:37.276Z,100598.55
2018-04-28T17:35:04.812Z,100602.91
2018-04-28T17:37:33.339Z,100603.44
2018-04-28T17:40:00.841Z,100607.77
2018-04-28T17:42:28.454Z,100605.45
2018-04-28T17:44:55.993Z,100609.61
2018-04-28T17:47:23.496Z,100605.07
2018-04-28T17:49:51.249Z,100611.34
2018-04-28T17:52:19.125Z,100601.70
2018-04-28T17:54:46.620Z,100609.59
2018-04-28T17:57:14.494Z,100605.56
2018-04-28T17:59:42.011Z,100610.02
2018-04-28T18:02:09.581Z,100609.25
2018-04-28T18:04:37.121Z,100609.23
2018-04-28T18:07:04.617Z,100609.27
2018-04-28T18:09:32.121Z,100610.31
2018-04-28T18:11:59.727Z,100616.32
2018-04-28T18:14:27.227Z,100615.03
2018-04-28T18:16:54.761Z,100618.86
2018-04-28T18:19:22.284Z,100622.59
2018-04-28T18:21:49.799Z,100627.41
2018-04-28T18:24:17.407Z,100623.42
2018-04-28T18:26:44.993Z,100628.29
2018-04-28T18:29:12.489Z,100627.83
2018-04-28T18:31:40.286Z,100635.38
2018-04-28T18:34:07.856Z,100635.62
2018-04-28T18:36:35.448Z,100638.33
2018-04-28T18:39:03.008Z,100638.80
2018-04-28T18:41:30.569Z,100630.22
2018-04-28T18:43:58.168Z,100628.23
2018-04-28T18:46:25.730Z,100628.58
2018-04-28T18:48:53.620Z,100637.41
2018-04-28T18:51:21.128Z,100647.13
2018-04-28T18:53:48.650Z,100651.94
2018-04-28T18:56:16.181Z,100660.87
2018-04-28T18:58:43.727Z,100661.00
2018-04-28T19:01:11.312Z,100658.28
2018-04-28T19:03:38.974Z,100663.25
2018-04-28T19:06:06.576Z,100664.61
2018-04-28T19:08:34.122Z,100670.56
2018-04-28T19:11:01.673Z,100672.45
2018-04-28T19:13:29.261Z,100675.48
2018-04-28T19:15:57.220Z,100678.70
2018-04-28T19:18:24.815Z,100671.02
2018-04-28T19:20:52.491Z,100682.77
2018-04-28T19:23:19.999Z,100685.65
2018-04-28T19:25:47.560Z,100692.13
2018-04-28T19:28:15.137Z,100690.66
2018-04-28T19:30:42.651Z,100696.12
2018-04-28T19:33:10.192Z,100695.89
2018-04-28T19:35:37.702Z,100705.31
2018-04-28T19:38:05.243Z,100713.97
2018-04-28T19:40:32.809Z,100720.03
2018-04-28T19:43:00.592Z,100723.38
2018-04-28T19:45:28.161Z,100722.94
2018-04-28T19:47:55.742Z,100716.44
2018-04-28T19:50:24.399Z,100711.49
2018-04-28T19:52:51.971Z,100709.15
2018-04-28T19:55:19.577Z,100709.89
2018-04-28T19:57:47.163Z,100710.53
2018-04-28T20:00:14.703Z,100709.27
2018-04-28T20:02:42.257Z,100709.95
2018-04-28T20:05:10.385Z,100712.55
2018-04-28T20:07:38.034Z,100706.73
2018-04-28T20:10:05.660Z,100699.55
2018-04-28T20:12:33.194Z,100710.16
2018-04-28T20:15:01.004Z,100709.86
2018-04-28T20:17:32.376Z,100716.69
2018-04-28T20:19:59.914Z,100707.88
2018-04-28T20:22:39.199Z,100711.34
2018-04-28T20:25:18.723Z,100720.83
2018-04-28T20:27:46.281Z,100717.82
2018-04-28T20:30:14.278Z,100714.52
2018-04-28T20:32:41.808Z,100719.78
2018-04-28T20:35:09.393Z,100725.05
2018-04-28T20:37:37.017Z,100723.02
2018-04-28T20:40:04.581Z,100727.30
2018-04-28T20:42:32.383Z,100726.83
2018-04-28T20:44:59.962Z,100718.67
2018-04-28T20:47:27.639Z,100723.27
2018-04-28T20:49:55.274Z,100717.34
2018-04-28T20:52:23.094Z,100713.16
2018-04-28T20:54:50.771Z,100709.83
2018-04-28T20:57:18.369Z,100716.70
2018-04-28T20:59:46.208Z,100728.33
2018-04-28T21:02:13.742Z,100726.77
2018-04-28T21:04:41.335Z,100731.13
2018-04-28T21:07:08.866Z,100723.92
2018-04-28T21:09:36.559Z,100723.10
2018-04-28T21:12:04.177Z,100730.73
2018-04-28T21:14:31.739Z,100726.75
2018-04-28T21:16:59.348Z,100720.97
2018-04-28T21:19:26.911Z,100715.04
2018-04-28T21:21:54.460Z,100702.69
2018-04-28T21:24:22.056Z,100704.86
2018-04-28T21:26:49.626Z,100713.01
2018-04-28T21:29:17.673Z,100717.96
2018-04-28T21:31:45.176Z,100714.23
2018-04-28T21:34:12.966Z,100726.10
2018-04-28T21:36:40.555Z,100726.10
2018-04-28T21:39:08.080Z,100731.83
2018-04-28T21:41:35.622Z,100725.68
2018-04-28T21:44:03.146Z,100718.51
2018-04-28T21:46:30.699Z,100721.44
2018-04-28T21:48:58.246Z,100724.81
2018-04-28T21:51:25.768Z,100724.43
2018-04-28T21:53:53.280Z,100720.91
2018-04-28T21:56:20.834Z,100717.86
2018-04-28T21:58:48.378Z,100715.60
2018-04-28T22:01:15.881Z,100713.02
2018-04-28T22:03:43.410Z,100706.06
2018-04-28T22:06:11.163Z,100702.66
2018-04-28T22:08:38.734Z,100699.02
2018-04-28T22:11:06.267Z,100700.42
2018-04-28T22:13:33.793Z,100704.67
2018-04-28T22:16:02.013Z,100707.48
2018-04-28T22:18:29.576Z,100715.02
2018-04-28T22:20:57.095Z,100714.91
2018-04-28T22:23:24.618Z,100714.49
2018-04-28T22:25:52.455Z,100718.09
2018-04-28T22:28:19.965Z,100723.48
2018-04-28T22:30:47.507Z,100717.67
2018-04-28T22:33:15.337Z,100724.53
2018-04-28T22:35:43.599Z,100722.05
2018-04-28T22:38:11.143Z,100714.67
2018-04-28T22:40:38.705Z,100718.94
2018-04-28T22:43:06.230Z,100716.44
2018-04-28T22:45:33.737Z,100714.81
2018-04-28T22:48:01.283Z,100714.02
2018-04-28T22:50:29.155Z,100710.84
2018-04-28T22:52:56.663Z,100711.67
2018-04-28T22:55:24.202Z,100718.59
2018-04-28T22:57:51.707Z,100721.10
2018-04-28T23:00:22.898Z,100720.50
2018-04-28T23:02:50.446Z,100716.51
2018-04-28T23:05:18.266Z,100714.06
2018-04-28T23:07:45.784Z,100714.80
2018-04-28T23:10:13.317Z,100710.64
2018-04-28T23:12:40.845Z,100703.84
2018-04-28T23:15:08.389Z,100695.44
2018-04-28T23:17:35.904Z,100692.85
2018-04-28T23:20:03.521Z,100691.31
2018-04-28T23:22:31.361Z,100697.23
2018-04-28T23:24:58.918Z,100695.58
2018-04-28T23:27:26.486Z,100700.54
2018-04-28T23:29:54.008Z,100697.53
2018-04-28T23:32:21.580Z,100695.36
2018-04-28T23:34:49.129Z,100696.52
2018-04-28T23:37:16.651Z,100694.30
2018-04-28T23:39:44.197Z,100691.52
2018-04-28T23:42:11.707Z,100682.17
2018-04-28T23:44:39.209Z,100685.77
2018-04-28T23:47:06.736Z,100685.79
2018-04-28T23:49:34.259Z,100679.45
2018-04-28T23:52:01.767Z,100670.01
2018-04-28T23:54:29.301Z,100665.52
2018-04-28T23:56:56.821Z,100659.33
2018-04-28T23:59:24.330Z,100650.25
